Suraya-y — 9LD2366 — position and weather

sailwx.info

Track history (hours):
 
Tides and Currents Weather Stations Pressure Air Temp Water Temp Dewpoint Dewpoint Depression Visibility Wind Speed Wind Dir Waves Ship Positions

Suraya-y

Last reported at 2014-Jul-19 11:33 UTC. Time now 2014-Jul-24 16:59 UTC.
Position N 40°52' E 028°55'.

Length 144 m; draft 9 m.

Type: Cargo ship. MMSI: 667005066.

Date/timePositionNaut miles runAvg speedWind from/ knotsBaromVisibWave heightAir tempDewpointWater temp
2014-Jul-19 11:33N 40°52' E 028°55'0 0.1
2014-Jul-19 10:33N 40°52' E 028°55'9610.1
2014-Jul-19 01:04N 40°28' E 026°52'29 9.6
2014-Jul-18 22:05N 40°10' E 026°24'15 8.5
2014-Jul-18 20:21N 40°00' E 026°09'8 9.7
2014-Jul-18 19:29N 39°57' E 025°59'9 9.8
2014-Jul-18 18:32N 39°49' E 025°51'1110.6
2014-Jul-18 17:32N 39°39' E 025°50'2711.0
2014-Jul-18 15:07N 39°12' E 025°47'2910.8
2014-Jul-18 12:28N 38°44' E 025°46'3311.0
2014-Jul-18 09:30N 38°11' E 025°46'3311.3
2014-Jul-18 06:33N 37°38' E 025°53'1110.6
2014-Jul-18 05:33N 37°28' E 025°56'1110.9
2014-Jul-18 04:33N 37°21' E 026°07'1110.6
2014-Jul-18 03:32N 37°14' E 026°17'1010.6
2014-Jul-18 02:33N 37°07' E 026°26'32910.6
2014-Jul-16 19:27N 34°40' E 032°29'910.4
2014-Jul-16 18:33N 34°35' E 032°39'10 9.8
2014-Jul-16 17:33N 34°32' E 032°50'10 9.7
2014-Jul-16 16:33N 34°32' E 033°02'8 8.0
2014-Jul-16 15:31N 34°40' E 033°04'0 0.2
2014-Jul-16 14:31N 34°40' E 033°04'0 0.0
2014-Jul-16 13:31N 34°40' E 033°04'0 0.0
2014-Jul-16 12:29N 34°40' E 033°04'0 0.0
2014-Jul-16 11:29N 34°40' E 033°04'0 0.0
2014-Jul-16 10:34N 34°40' E 033°04'0 0.1
2014-Jul-16 09:34N 34°40' E 033°04'7 7.2
2014-Jul-16 08:34N 34°40' E 033°13'1111.1
2014-Jul-16 07:33N 34°40' E 033°26'3411.1
2014-Jul-16 04:32N 34°45' E 034°07'1310.4
2014-Jul-16 03:19N 34°47' E 034°22'  
Track history (hours):
 
Tides and Currents Weather Stations Pressure Air Temp Water Temp Dewpoint Dewpoint Depression Visibility Wind Speed Wind Dir Waves Ship Positions

Suraya-y

Last reported at 2014-Jul-19 11:33 UTC. Time now 2014-Jul-24 16:59 UTC.
Position N 40°52' E 028°55'.

Length 144 m; draft 9 m.

Type: Cargo ship. MMSI: 667005066.

Date/timePositionNaut miles runAvg speedWind from/ knotsBaromVisibWave heightAir tempDewpointWater temp
2014-Jul-19 11:33N 40°52' E 028°55'0 0.1
2014-Jul-19 10:33N 40°52' E 028°55'9610.1
2014-Jul-19 01:04N 40°28' E 026°52'29 9.6
2014-Jul-18 22:05N 40°10' E 026°24'15 8.5
2014-Jul-18 20:21N 40°00' E 026°09'8 9.7
2014-Jul-18 19:29N 39°57' E 025°59'9 9.8
2014-Jul-18 18:32N 39°49' E 025°51'1110.6
2014-Jul-18 17:32N 39°39' E 025°50'2711.0
2014-Jul-18 15:07N 39°12' E 025°47'2910.8
2014-Jul-18 12:28N 38°44' E 025°46'3311.0
2014-Jul-18 09:30N 38°11' E 025°46'3311.3
2014-Jul-18 06:33N 37°38' E 025°53'1110.6
2014-Jul-18 05:33N 37°28' E 025°56'1110.9
2014-Jul-18 04:33N 37°21' E 026°07'1110.6
2014-Jul-18 03:32N 37°14' E 026°17'1010.6
2014-Jul-18 02:33N 37°07' E 026°26'32910.6
2014-Jul-16 19:27N 34°40' E 032°29'910.4
2014-Jul-16 18:33N 34°35' E 032°39'10 9.8
2014-Jul-16 17:33N 34°32' E 032°50'10 9.7
2014-Jul-16 16:33N 34°32' E 033°02'8 8.0
2014-Jul-16 15:31N 34°40' E 033°04'0 0.2
2014-Jul-16 14:31N 34°40' E 033°04'0 0.0
2014-Jul-16 13:31N 34°40' E 033°04'0 0.0
2014-Jul-16 12:29N 34°40' E 033°04'0 0.0
2014-Jul-16 11:29N 34°40' E 033°04'0 0.0
2014-Jul-16 10:34N 34°40' E 033°04'0 0.1
2014-Jul-16 09:34N 34°40' E 033°04'7 7.2
2014-Jul-16 08:34N 34°40' E 033°13'1111.1
2014-Jul-16 07:33N 34°40' E 033°26'3411.1
2014-Jul-16 04:32N 34°45' E 034°07'1310.4
2014-Jul-16 03:19N 34°47' E 034°22'  

Dump ship's entire track history